sensor_id;sensor_type;location;lat;lon;timestamp;P1;durP1;ratioP1;P2;durP2;ratioP2
19101;SDS011;9683;49.028;12.064;2022-09-09T00:00:54;63.87;;;4.07;;
19101;SDS011;9683;49.028;12.064;2022-09-09T00:03:26;49.37;;;3.40;;
19101;SDS011;9683;49.028;12.064;2022-09-09T00:05:59;46.07;;;3.37;;
19101;SDS011;9683;49.028;12.064;2022-09-09T00:08:34;113.67;;;6.90;;
19101;SDS011;9683;49.028;12.064;2022-09-09T00:11:12;47.37;;;3.50;;
19101;SDS011;9683;49.028;12.064;2022-09-09T00:13:45;71.07;;;5.10;;
19101;SDS011;9683;49.028;12.064;2022-09-09T00:16:17;55.03;;;4.13;;
19101;SDS011;9683;49.028;12.064;2022-09-09T00:18:50;52.90;;;3.90;;
19101;SDS011;9683;49.028;12.064;2022-09-09T00:21:21;65.47;;;4.23;;
19101;SDS011;9683;49.028;12.064;2022-09-09T00:23:51;66.37;;;4.23;;
19101;SDS011;9683;49.028;12.064;2022-09-09T00:26:21;63.57;;;4.30;;
19101;SDS011;9683;49.028;12.064;2022-09-09T00:28:55;54.10;;;3.47;;
19101;SDS011;9683;49.028;12.064;2022-09-09T00:31:27;51.40;;;3.83;;
19101;SDS011;9683;49.028;12.064;2022-09-09T00:33:56;176.70;;;10.80;;
19101;SDS011;9683;49.028;12.064;2022-09-09T00:36:29;49.47;;;3.80;;
19101;SDS011;9683;49.028;12.064;2022-09-09T00:39:00;47.50;;;3.47;;
19101;SDS011;9683;49.028;12.064;2022-09-09T00:41:29;44.10;;;3.27;;
19101;SDS011;9683;49.028;12.064;2022-09-09T00:44:12;53.60;;;3.80;;
19101;SDS011;9683;49.028;12.064;2022-09-09T00:46:55;27.63;;;2.30;;
19101;SDS011;9683;49.028;12.064;2022-09-09T00:49:37;81.03;;;5.00;;
19101;SDS011;9683;49.028;12.064;2022-09-09T00:52:17;55.50;;;3.60;;
19101;SDS011;9683;49.028;12.064;2022-09-09T00:54:51;58.60;;;4.03;;
19101;SDS011;9683;49.028;12.064;2022-09-09T00:57:26;59.10;;;3.80;;
19101;SDS011;9683;49.028;12.064;2022-09-09T00:59:58;47.20;;;3.57;;
19101;SDS011;9683;49.028;12.064;2022-09-09T01:02:44;44.10;;;3.53;;
19101;SDS011;9683;49.028;12.064;2022-09-09T01:05:23;85.03;;;5.60;;
19101;SDS011;9683;49.028;12.064;2022-09-09T01:07:56;38.77;;;3.00;;
19101;SDS011;9683;49.028;12.064;2022-09-09T01:10:29;113.17;;;7.07;;
19101;SDS011;9683;49.028;12.064;2022-09-09T01:13:02;45.87;;;3.17;;
19101;SDS011;9683;49.028;12.064;2022-09-09T01:15:37;50.00;;;4.00;;
19101;SDS011;9683;49.028;12.064;2022-09-09T01:18:08;45.00;;;3.47;;
19101;SDS011;9683;49.028;12.064;2022-09-09T01:20:39;48.87;;;3.80;;
19101;SDS011;9683;49.028;12.064;2022-09-09T01:23:19;48.67;;;4.30;;
19101;SDS011;9683;49.028;12.064;2022-09-09T01:26:16;63.57;;;4.93;;
19101;SDS011;9683;49.028;12.064;2022-09-09T01:28:47;55.13;;;5.50;;
19101;SDS011;9683;49.028;12.064;2022-09-09T01:31:18;51.30;;;4.20;;
19101;SDS011;9683;49.028;12.064;2022-09-09T01:33:47;50.27;;;4.57;;
19101;SDS011;9683;49.028;12.064;2022-09-09T01:36:18;51.07;;;4.93;;
19101;SDS011;9683;49.028;12.064;2022-09-09T01:38:48;48.70;;;5.33;;
19101;SDS011;9683;49.028;12.064;2022-09-09T01:41:16;79.53;;;6.37;;
19101;SDS011;9683;49.028;12.064;2022-09-09T01:43:43;69.43;;;5.07;;
19101;SDS011;9683;49.028;12.064;2022-09-09T01:46:10;101.60;;;8.57;;
19101;SDS011;9683;49.028;12.064;2022-09-09T01:48:38;36.07;;;3.70;;
19101;SDS011;9683;49.028;12.064;2022-09-09T01:51:07;60.93;;;4.87;;
19101;SDS011;9683;49.028;12.064;2022-09-09T01:53:34;41.63;;;3.83;;
19101;SDS011;9683;49.028;12.064;2022-09-09T01:56:02;47.83;;;4.50;;
19101;SDS011;9683;49.028;12.064;2022-09-09T01:58:43;52.73;;;6.03;;
19101;SDS011;9683;49.028;12.064;2022-09-09T02:01:22;69.17;;;6.50;;
19101;SDS011;9683;49.028;12.064;2022-09-09T02:03:55;35.53;;;5.10;;
19101;SDS011;9683;49.028;12.064;2022-09-09T02:06:25;49.00;;;5.80;;
19101;SDS011;9683;49.028;12.064;2022-09-09T02:08:55;42.00;;;5.80;;
19101;SDS011;9683;49.028;12.064;2022-09-09T02:11:23;66.90;;;6.33;;
19101;SDS011;9683;49.028;12.064;2022-09-09T02:13:54;64.43;;;7.40;;
19101;SDS011;9683;49.028;12.064;2022-09-09T02:16:26;48.37;;;4.20;;
19101;SDS011;9683;49.028;12.064;2022-09-09T02:18:59;53.53;;;5.80;;
19101;SDS011;9683;49.028;12.064;2022-09-09T02:21:30;42.57;;;5.07;;
19101;SDS011;9683;49.028;12.064;2022-09-09T02:24:00;47.17;;;5.30;;
19101;SDS011;9683;49.028;12.064;2022-09-09T02:26:30;89.83;;;7.80;;
19101;SDS011;9683;49.028;12.064;2022-09-09T02:29:01;55.63;;;6.07;;
19101;SDS011;9683;49.028;12.064;2022-09-09T02:31:29;120.10;;;9.03;;
19101;SDS011;9683;49.028;12.064;2022-09-09T02:33:58;42.90;;;5.07;;
19101;SDS011;9683;49.028;12.064;2022-09-09T02:36:29;127.80;;;9.43;;
19101;SDS011;9683;49.028;12.064;2022-09-09T02:38:58;61.30;;;5.50;;
19101;SDS011;9683;49.028;12.064;2022-09-09T02:41:27;87.93;;;8.03;;
19101;SDS011;9683;49.028;12.064;2022-09-09T02:43:57;52.40;;;5.53;;
19101;SDS011;9683;49.028;12.064;2022-09-09T02:46:29;95.47;;;7.60;;
19101;SDS011;9683;49.028;12.064;2022-09-09T02:49:08;63.20;;;6.90;;
19101;SDS011;9683;49.028;12.064;2022-09-09T02:51:39;93.33;;;8.20;;
19101;SDS011;9683;49.028;12.064;2022-09-09T02:54:14;58.73;;;5.20;;
19101;SDS011;9683;49.028;12.064;2022-09-09T02:56:47;49.03;;;5.20;;
19101;SDS011;9683;49.028;12.064;2022-09-09T02:59:18;61.90;;;5.60;;
19101;SDS011;9683;49.028;12.064;2022-09-09T03:01:46;65.97;;;6.27;;
19101;SDS011;9683;49.028;12.064;2022-09-09T03:04:12;66.73;;;6.30;;
19101;SDS011;9683;49.028;12.064;2022-09-09T03:06:39;45.50;;;4.63;;
19101;SDS011;9683;49.028;12.064;2022-09-09T03:09:06;50.23;;;4.80;;
19101;SDS011;9683;49.028;12.064;2022-09-09T03:11:35;55.73;;;6.00;;
19101;SDS011;9683;49.028;12.064;2022-09-09T03:14:02;79.33;;;6.87;;
19101;SDS011;9683;49.028;12.064;2022-09-09T03:16:29;73.97;;;7.30;;
19101;SDS011;9683;49.028;12.064;2022-09-09T03:18:57;49.37;;;6.70;;
19101;SDS011;9683;49.028;12.064;2022-09-09T03:21:23;66.60;;;6.70;;
19101;SDS011;9683;49.028;12.064;2022-09-09T03:23:50;52.00;;;5.73;;
19101;SDS011;9683;49.028;12.064;2022-09-09T03:26:16;47.13;;;5.77;;
19101;SDS011;9683;49.028;12.064;2022-09-09T03:28:44;87.33;;;8.63;;
19101;SDS011;9683;49.028;12.064;2022-09-09T03:31:10;100.23;;;9.10;;
19101;SDS011;9683;49.028;12.064;2022-09-09T03:33:37;47.83;;;6.87;;
19101;SDS011;9683;49.028;12.064;2022-09-09T03:36:07;56.10;;;6.17;;
19101;SDS011;9683;49.028;12.064;2022-09-09T03:38:42;102.20;;;8.60;;
19101;SDS011;9683;49.028;12.064;2022-09-09T03:41:09;96.97;;;10.03;;
19101;SDS011;9683;49.028;12.064;2022-09-09T03:43:35;78.73;;;7.97;;
19101;SDS011;9683;49.028;12.064;2022-09-09T03:46:02;61.47;;;6.17;;
19101;SDS011;9683;49.028;12.064;2022-09-09T03:48:30;71.47;;;7.57;;
19101;SDS011;9683;49.028;12.064;2022-09-09T03:50:57;60.07;;;6.47;;
19101;SDS011;9683;49.028;12.064;2022-09-09T03:53:27;66.53;;;6.87;;
19101;SDS011;9683;49.028;12.064;2022-09-09T03:55:55;72.93;;;6.60;;
19101;SDS011;9683;49.028;12.064;2022-09-09T03:58:23;50.13;;;5.90;;
19101;SDS011;9683;49.028;12.064;2022-09-09T04:00:55;149.43;;;10.00;;
19101;SDS011;9683;49.028;12.064;2022-09-09T04:03:23;56.67;;;6.23;;
19101;SDS011;9683;49.028;12.064;2022-09-09T04:05:51;144.87;;;12.20;;
19101;SDS011;9683;49.028;12.064;2022-09-09T04:08:18;84.80;;;8.17;;
19101;SDS011;9683;49.028;12.064;2022-09-09T04:10:46;66.67;;;6.83;;
19101;SDS011;9683;49.028;12.064;2022-09-09T04:13:13;70.07;;;6.57;;
19101;SDS011;9683;49.028;12.064;2022-09-09T04:15:41;59.37;;;6.70;;
19101;SDS011;9683;49.028;12.064;2022-09-09T04:18:08;78.83;;;6.23;;
19101;SDS011;9683;49.028;12.064;2022-09-09T04:20:35;77.13;;;8.03;;
19101;SDS011;9683;49.028;12.064;2022-09-09T04:23:04;62.50;;;6.77;;
19101;SDS011;9683;49.028;12.064;2022-09-09T04:25:31;104.03;;;9.30;;
19101;SDS011;9683;49.028;12.064;2022-09-09T04:28:00;53.63;;;5.47;;
19101;SDS011;9683;49.028;12.064;2022-09-09T04:30:27;126.17;;;9.77;;
19101;SDS011;9683;49.028;12.064;2022-09-09T04:32:54;66.03;;;8.03;;
19101;SDS011;9683;49.028;12.064;2022-09-09T04:35:20;84.23;;;8.27;;
19101;SDS011;9683;49.028;12.064;2022-09-09T04:37:48;66.77;;;7.97;;
19101;SDS011;9683;49.028;12.064;2022-09-09T04:40:14;133.57;;;11.03;;
19101;SDS011;9683;49.028;12.064;2022-09-09T04:42:41;39.23;;;6.10;;
19101;SDS011;9683;49.028;12.064;2022-09-09T04:45:10;77.33;;;6.97;;
19101;SDS011;9683;49.028;12.064;2022-09-09T04:47:38;64.37;;;5.53;;
19101;SDS011;9683;49.028;12.064;2022-09-09T04:50:06;66.03;;;5.87;;
19101;SDS011;9683;49.028;12.064;2022-09-09T04:52:33;112.60;;;9.67;;
19101;SDS011;9683;49.028;12.064;2022-09-09T04:55:00;64.10;;;7.37;;
19101;SDS011;9683;49.028;12.064;2022-09-09T04:57:27;126.43;;;9.90;;
19101;SDS011;9683;49.028;12.064;2022-09-09T04:59:53;78.73;;;6.60;;
19101;SDS011;9683;49.028;12.064;2022-09-09T05:02:21;61.90;;;6.33;;
19101;SDS011;9683;49.028;12.064;2022-09-09T05:04:48;55.30;;;7.00;;
19101;SDS011;9683;49.028;12.064;2022-09-09T05:07:15;71.47;;;5.97;;
19101;SDS011;9683;49.028;12.064;2022-09-09T05:09:42;67.77;;;6.97;;
19101;SDS011;9683;49.028;12.064;2022-09-09T05:12:10;99.80;;;8.97;;
19101;SDS011;9683;49.028;12.064;2022-09-09T05:14:36;92.00;;;8.27;;
19101;SDS011;9683;49.028;12.064;2022-09-09T05:17:03;63.20;;;5.47;;
19101;SDS011;9683;49.028;12.064;2022-09-09T05:19:32;75.73;;;6.17;;
19101;SDS011;9683;49.028;12.064;2022-09-09T05:21:58;73.57;;;6.93;;
19101;SDS011;9683;49.028;12.064;2022-09-09T05:24:26;154.77;;;11.13;;
19101;SDS011;9683;49.028;12.064;2022-09-09T05:26:52;51.60;;;4.23;;
19101;SDS011;9683;49.028;12.064;2022-09-09T05:29:23;75.67;;;6.03;;
19101;SDS011;9683;49.028;12.064;2022-09-09T05:31:50;55.70;;;6.27;;
19101;SDS011;9683;49.028;12.064;2022-09-09T05:34:17;67.93;;;7.13;;
19101;SDS011;9683;49.028;12.064;2022-09-09T05:36:46;66.60;;;7.77;;
19101;SDS011;9683;49.028;12.064;2022-09-09T05:39:13;79.37;;;8.03;;
19101;SDS011;9683;49.028;12.064;2022-09-09T05:41:39;77.83;;;6.93;;
19101;SDS011;9683;49.028;12.064;2022-09-09T05:44:06;72.50;;;6.57;;
19101;SDS011;9683;49.028;12.064;2022-09-09T05:46:32;65.07;;;5.60;;
19101;SDS011;9683;49.028;12.064;2022-09-09T05:48:59;60.93;;;5.00;;
19101;SDS011;9683;49.028;12.064;2022-09-09T05:51:26;104.13;;;7.47;;
19101;SDS011;9683;49.028;12.064;2022-09-09T05:53:56;69.90;;;6.03;;
19101;SDS011;9683;49.028;12.064;2022-09-09T05:56:24;143.80;;;10.30;;
19101;SDS011;9683;49.028;12.064;2022-09-09T05:58:52;87.70;;;6.87;;
19101;SDS011;9683;49.028;12.064;2022-09-09T06:01:20;44.90;;;5.47;;
19101;SDS011;9683;49.028;12.064;2022-09-09T06:03:49;48.03;;;4.43;;
19101;SDS011;9683;49.028;12.064;2022-09-09T06:06:17;56.23;;;5.20;;
19101;SDS011;9683;49.028;12.064;2022-09-09T06:08:45;51.43;;;4.70;;
19101;SDS011;9683;49.028;12.064;2022-09-09T06:11:15;51.97;;;6.43;;
19101;SDS011;9683;49.028;12.064;2022-09-09T06:13:42;47.67;;;4.73;;
19101;SDS011;9683;49.028;12.064;2022-09-09T06:16:10;47.17;;;4.20;;
19101;SDS011;9683;49.028;12.064;2022-09-09T06:18:37;122.33;;;9.13;;
19101;SDS011;9683;49.028;12.064;2022-09-09T06:21:05;70.90;;;6.10;;
19101;SDS011;9683;49.028;12.064;2022-09-09T06:23:34;88.97;;;7.10;;
19101;SDS011;9683;49.028;12.064;2022-09-09T06:26:02;68.87;;;6.13;;
19101;SDS011;9683;49.028;12.064;2022-09-09T06:28:32;73.40;;;6.27;;
19101;SDS011;9683;49.028;12.064;2022-09-09T06:30:59;60.70;;;4.57;;
19101;SDS011;9683;49.028;12.064;2022-09-09T06:33:26;96.47;;;7.30;;
19101;SDS011;9683;49.028;12.064;2022-09-09T06:35:56;71.80;;;5.63;;
19101;SDS011;9683;49.028;12.064;2022-09-09T06:38:23;132.50;;;9.43;;
19101;SDS011;9683;49.028;12.064;2022-09-09T06:40:51;89.70;;;5.97;;
19101;SDS011;9683;49.028;12.064;2022-09-09T06:43:19;95.63;;;6.97;;
19101;SDS011;9683;49.028;12.064;2022-09-09T06:45:53;41.40;;;4.53;;
19101;SDS011;9683;49.028;12.064;2022-09-09T06:48:21;100.67;;;7.17;;
19101;SDS011;9683;49.028;12.064;2022-09-09T06:50:48;51.63;;;4.93;;
19101;SDS011;9683;49.028;12.064;2022-09-09T06:53:16;83.40;;;6.70;;
19101;SDS011;9683;49.028;12.064;2022-09-09T06:55:44;84.70;;;7.07;;
19101;SDS011;9683;49.028;12.064;2022-09-09T06:58:11;76.33;;;6.30;;
19101;SDS011;9683;49.028;12.064;2022-09-09T07:00:37;124.37;;;8.20;;
19101;SDS011;9683;49.028;12.064;2022-09-09T07:03:05;81.60;;;7.50;;
19101;SDS011;9683;49.028;12.064;2022-09-09T07:05:32;44.83;;;4.77;;
19101;SDS011;9683;49.028;12.064;2022-09-09T07:07:59;51.73;;;6.40;;
19101;SDS011;9683;49.028;12.064;2022-09-09T07:10:26;131.57;;;11.17;;
19101;SDS011;9683;49.028;12.064;2022-09-09T07:12:52;58.70;;;6.17;;
19101;SDS011;9683;49.028;12.064;2022-09-09T07:15:19;150.10;;;10.40;;
19101;SDS011;9683;49.028;12.064;2022-09-09T07:17:46;63.77;;;5.03;;
19101;SDS011;9683;49.028;12.064;2022-09-09T07:20:15;170.53;;;11.17;;
19101;SDS011;9683;49.028;12.064;2022-09-09T07:22:41;98.13;;;7.20;;
19101;SDS011;9683;49.028;12.064;2022-09-09T07:25:08;58.10;;;4.53;;
19101;SDS011;9683;49.028;12.064;2022-09-09T07:27:35;51.13;;;4.50;;
19101;SDS011;9683;49.028;12.064;2022-09-09T07:30:02;71.23;;;5.50;;
19101;SDS011;9683;49.028;12.064;2022-09-09T07:32:29;69.97;;;4.87;;
19101;SDS011;9683;49.028;12.064;2022-09-09T07:34:56;97.07;;;7.30;;
19101;SDS011;9683;49.028;12.064;2022-09-09T07:37:24;93.73;;;7.10;;
19101;SDS011;9683;49.028;12.064;2022-09-09T07:39:51;140.53;;;9.50;;
19101;SDS011;9683;49.028;12.064;2022-09-09T07:42:18;213.00;;;14.43;;
19101;SDS011;9683;49.028;12.064;2022-09-09T07:44:44;320.90;;;20.30;;
19101;SDS011;9683;49.028;12.064;2022-09-09T07:47:11;240.47;;;15.17;;
19101;SDS011;9683;49.028;12.064;2022-09-09T07:49:38;225.67;;;14.70;;
19101;SDS011;9683;49.028;12.064;2022-09-09T07:52:05;229.80;;;15.40;;
19101;SDS011;9683;49.028;12.064;2022-09-09T07:54:33;251.83;;;17.07;;
19101;SDS011;9683;49.028;12.064;2022-09-09T07:57:00;213.83;;;14.43;;
19101;SDS011;9683;49.028;12.064;2022-09-09T07:59:28;248.50;;;15.47;;
19101;SDS011;9683;49.028;12.064;2022-09-09T08:01:55;218.63;;;14.33;;
19101;SDS011;9683;49.028;12.064;2022-09-09T08:04:23;179.13;;;11.90;;
19101;SDS011;9683;49.028;12.064;2022-09-09T08:06:51;209.40;;;15.07;;
19101;SDS011;9683;49.028;12.064;2022-09-09T08:09:19;234.87;;;19.40;;
19101;SDS011;9683;49.028;12.064;2022-09-09T08:11:48;105.83;;;8.47;;
19101;SDS011;9683;49.028;12.064;2022-09-09T08:14:14;238.03;;;14.47;;
19101;SDS011;9683;49.028;12.064;2022-09-09T08:16:42;222.97;;;15.27;;
19101;SDS011;9683;49.028;12.064;2022-09-09T08:19:10;158.00;;;9.63;;
19101;SDS011;9683;49.028;12.064;2022-09-09T08:21:38;271.10;;;17.00;;
19101;SDS011;9683;49.028;12.064;2022-09-09T08:24:06;255.40;;;15.90;;
19101;SDS011;9683;49.028;12.064;2022-09-09T08:26:34;231.27;;;14.83;;
19101;SDS011;9683;49.028;12.064;2022-09-09T08:29:04;157.33;;;11.13;;
19101;SDS011;9683;49.028;12.064;2022-09-09T08:31:33;206.47;;;12.90;;
19101;SDS011;9683;49.028;12.064;2022-09-09T08:34:00;72.23;;;5.97;;
19101;SDS011;9683;49.028;12.064;2022-09-09T08:36:29;89.07;;;6.27;;
19101;SDS011;9683;49.028;12.064;2022-09-09T08:38:58;59.00;;;4.60;;
19101;SDS011;9683;49.028;12.064;2022-09-09T08:44:26;45.00;;;4.03;;
19101;SDS011;9683;49.028;12.064;2022-09-09T08:47:03;50.17;;;3.93;;
19101;SDS011;9683;49.028;12.064;2022-09-09T08:49:45;65.90;;;5.43;;
19101;SDS011;9683;49.028;12.064;2022-09-09T08:52:19;45.77;;;4.33;;
19101;SDS011;9683;49.028;12.064;2022-09-09T08:54:49;50.57;;;11.73;;
19101;SDS011;9683;49.028;12.064;2022-09-09T08:57:18;62.67;;;5.63;;
19101;SDS011;9683;49.028;12.064;2022-09-09T08:59:49;38.97;;;3.20;;
19101;SDS011;9683;49.028;12.064;2022-09-09T09:02:17;75.20;;;5.40;;
19101;SDS011;9683;49.028;12.064;2022-09-09T09:04:53;49.67;;;4.50;;
19101;SDS011;9683;49.028;12.064;2022-09-09T09:07:28;39.50;;;4.70;;
19101;SDS011;9683;49.028;12.064;2022-09-09T09:10:04;77.07;;;9.33;;
19101;SDS011;9683;49.028;12.064;2022-09-09T09:12:39;69.60;;;4.97;;
19101;SDS011;9683;49.028;12.064;2022-09-09T09:15:14;54.70;;;4.53;;
19101;SDS011;9683;49.028;12.064;2022-09-09T09:17:44;45.47;;;3.33;;
19101;SDS011;9683;49.028;12.064;2022-09-09T09:20:11;91.10;;;6.37;;
19101;SDS011;9683;49.028;12.064;2022-09-09T09:22:42;54.40;;;3.67;;
19101;SDS011;9683;49.028;12.064;2022-09-09T09:25:15;51.07;;;4.33;;
19101;SDS011;9683;49.028;12.064;2022-09-09T09:27:44;51.13;;;3.57;;
19101;SDS011;9683;49.028;12.064;2022-09-09T09:30:22;135.30;;;9.13;;
19101;SDS011;9683;49.028;12.064;2022-09-09T09:32:51;52.17;;;3.80;;
19101;SDS011;9683;49.028;12.064;2022-09-09T09:35:20;51.97;;;3.63;;
19101;SDS011;9683;49.028;12.064;2022-09-09T09:37:46;36.37;;;2.73;;
19101;SDS011;9683;49.028;12.064;2022-09-09T09:40:14;131.60;;;9.20;;
19101;SDS011;9683;49.028;12.064;2022-09-09T09:42:51;51.70;;;4.27;;
19101;SDS011;9683;49.028;12.064;2022-09-09T09:45:25;59.73;;;4.20;;
19101;SDS011;9683;49.028;12.064;2022-09-09T09:48:00;47.87;;;3.33;;
19101;SDS011;9683;49.028;12.064;2022-09-09T09:50:28;111.87;;;8.40;;
19101;SDS011;9683;49.028;12.064;2022-09-09T09:52:57;43.20;;;3.50;;
19101;SDS011;9683;49.028;12.064;2022-09-09T09:55:25;36.93;;;2.77;;
19101;SDS011;9683;49.028;12.064;2022-09-09T09:57:52;39.37;;;4.00;;
19101;SDS011;9683;49.028;12.064;2022-09-09T10:00:20;108.37;;;7.83;;
19101;SDS011;9683;49.028;12.064;2022-09-09T10:02:49;48.10;;;3.90;;
19101;SDS011;9683;49.028;12.064;2022-09-09T10:05:18;40.60;;;3.20;;
19101;SDS011;9683;49.028;12.064;2022-09-09T10:07:46;66.77;;;4.40;;
19101;SDS011;9683;49.028;12.064;2022-09-09T10:10:28;93.17;;;6.23;;
19101;SDS011;9683;49.028;12.064;2022-09-09T10:13:06;57.47;;;4.10;;
19101;SDS011;9683;49.028;12.064;2022-09-09T10:15:41;39.10;;;3.67;;
19101;SDS011;9683;49.028;12.064;2022-09-09T10:21:15;52.57;;;3.93;;
19101;SDS011;9683;49.028;12.064;2022-09-09T10:24:05;49.17;;;4.03;;
19101;SDS011;9683;49.028;12.064;2022-09-09T10:26:46;37.83;;;2.73;;
19101;SDS011;9683;49.028;12.064;2022-09-09T10:29:24;44.20;;;3.97;;
19101;SDS011;9683;49.028;12.064;2022-09-09T10:32:09;60.50;;;4.90;;
19101;SDS011;9683;49.028;12.064;2022-09-09T10:34:55;47.57;;;3.43;;
19101;SDS011;9683;49.028;12.064;2022-09-09T10:37:27;44.13;;;3.10;;
19101;SDS011;9683;49.028;12.064;2022-09-09T10:40:08;57.87;;;5.03;;
19101;SDS011;9683;49.028;12.064;2022-09-09T10:42:46;72.40;;;4.30;;
19101;SDS011;9683;49.028;12.064;2022-09-09T10:45:15;55.67;;;3.63;;
19101;SDS011;9683;49.028;12.064;2022-09-09T10:47:59;67.87;;;4.33;;
19101;SDS011;9683;49.028;12.064;2022-09-09T10:50:52;68.17;;;4.50;;
19101;SDS011;9683;49.028;12.064;2022-09-09T10:53:30;39.83;;;3.10;;
19101;SDS011;9683;49.028;12.064;2022-09-09T10:56:04;96.87;;;6.33;;
19101;SDS011;9683;49.028;12.064;2022-09-09T10:58:35;75.40;;;5.03;;
19101;SDS011;9683;49.028;12.064;2022-09-09T11:01:09;49.03;;;3.30;;
19101;SDS011;9683;49.028;12.064;2022-09-09T11:03:42;29.83;;;2.67;;
19101;SDS011;9683;49.028;12.064;2022-09-09T11:06:12;32.57;;;2.60;;
19101;SDS011;9683;49.028;12.064;2022-09-09T11:08:42;58.87;;;4.83;;
19101;SDS011;9683;49.028;12.064;2022-09-09T11:11:09;46.73;;;3.53;;
19101;SDS011;9683;49.028;12.064;2022-09-09T11:13:42;36.03;;;2.60;;
19101;SDS011;9683;49.028;12.064;2022-09-09T11:16:16;43.23;;;2.80;;
19101;SDS011;9683;49.028;12.064;2022-09-09T11:18:50;43.03;;;3.00;;
19101;SDS011;9683;49.028;12.064;2022-09-09T11:21:22;60.67;;;4.10;;
19101;SDS011;9683;49.028;12.064;2022-09-09T11:23:53;54.13;;;3.80;;
19101;SDS011;9683;49.028;12.064;2022-09-09T11:26:25;65.47;;;4.50;;
19101;SDS011;9683;49.028;12.064;2022-09-09T11:29:00;63.53;;;3.90;;
19101;SDS011;9683;49.028;12.064;2022-09-09T11:31:41;55.80;;;3.90;;
19101;SDS011;9683;49.028;12.064;2022-09-09T11:34:16;43.13;;;3.17;;
19101;SDS011;9683;49.028;12.064;2022-09-09T11:36:56;32.80;;;2.53;;
19101;SDS011;9683;49.028;12.064;2022-09-09T11:42:42;42.63;;;3.87;;
19101;SDS011;9683;49.028;12.064;2022-09-09T11:45:10;42.17;;;3.00;;
19101;SDS011;9683;49.028;12.064;2022-09-09T11:47:51;33.20;;;2.53;;
19101;SDS011;9683;49.028;12.064;2022-09-09T11:50:29;114.87;;;7.90;;
19101;SDS011;9683;49.028;12.064;2022-09-09T11:53:04;37.60;;;2.90;;
19101;SDS011;9683;49.028;12.064;2022-09-09T11:55:47;26.93;;;2.10;;
19101;SDS011;9683;49.028;12.064;2022-09-09T11:58:15;35.43;;;2.60;;
19101;SDS011;9683;49.028;12.064;2022-09-09T12:00:45;45.03;;;3.07;;
19101;SDS011;9683;49.028;12.064;2022-09-09T12:06:13;29.20;;;2.20;;
19101;SDS011;9683;49.028;12.064;2022-09-09T12:08:45;39.83;;;3.03;;
19101;SDS011;9683;49.028;12.064;2022-09-09T12:11:23;49.20;;;3.60;;
19101;SDS011;9683;49.028;12.064;2022-09-09T12:13:55;45.13;;;3.40;;
19101;SDS011;9683;49.028;12.064;2022-09-09T12:16:30;37.00;;;2.80;;
19101;SDS011;9683;49.028;12.064;2022-09-09T12:19:03;39.87;;;3.23;;
19101;SDS011;9683;49.028;12.064;2022-09-09T12:21:33;80.13;;;4.97;;
19101;SDS011;9683;49.028;12.064;2022-09-09T12:24:05;21.50;;;2.00;;
19101;SDS011;9683;49.028;12.064;2022-09-09T12:26:36;54.10;;;4.07;;
19101;SDS011;9683;49.028;12.064;2022-09-09T12:29:12;46.03;;;3.53;;
19101;SDS011;9683;49.028;12.064;2022-09-09T12:31:50;34.70;;;2.70;;
19101;SDS011;9683;49.028;12.064;2022-09-09T12:34:27;39.17;;;2.83;;
19101;SDS011;9683;49.028;12.064;2022-09-09T12:37:04;50.03;;;3.70;;
19101;SDS011;9683;49.028;12.064;2022-09-09T12:39:38;33.37;;;3.50;;
19101;SDS011;9683;49.028;12.064;2022-09-09T12:42:15;59.47;;;4.17;;
19101;SDS011;9683;49.028;12.064;2022-09-09T12:44:50;42.30;;;3.53;;
19101;SDS011;9683;49.028;12.064;2022-09-09T12:47:17;38.10;;;2.93;;
19101;SDS011;9683;49.028;12.064;2022-09-09T12:49:46;30.23;;;2.23;;
19101;SDS011;9683;49.028;12.064;2022-09-09T12:52:17;45.43;;;3.07;;
19101;SDS011;9683;49.028;12.064;2022-09-09T12:54:48;69.00;;;5.97;;
19101;SDS011;9683;49.028;12.064;2022-09-09T12:57:16;32.30;;;2.30;;
19101;SDS011;9683;49.028;12.064;2022-09-09T12:59:43;46.57;;;3.00;;
19101;SDS011;9683;49.028;12.064;2022-09-09T13:02:15;53.80;;;5.67;;
19101;SDS011;9683;49.028;12.064;2022-09-09T13:04:44;48.93;;;3.30;;
19101;SDS011;9683;49.028;12.064;2022-09-09T13:07:12;43.70;;;3.03;;
19101;SDS011;9683;49.028;12.064;2022-09-09T13:09:42;47.60;;;3.27;;
19101;SDS011;9683;49.028;12.064;2022-09-09T13:12:11;40.33;;;3.17;;
19101;SDS011;9683;49.028;12.064;2022-09-09T13:14:42;45.63;;;3.13;;
19101;SDS011;9683;49.028;12.064;2022-09-09T13:17:15;38.67;;;2.80;;
19101;SDS011;9683;49.028;12.064;2022-09-09T13:19:45;57.87;;;3.87;;
19101;SDS011;9683;49.028;12.064;2022-09-09T13:22:12;48.37;;;3.87;;
19101;SDS011;9683;49.028;12.064;2022-09-09T13:24:41;40.60;;;2.97;;
19101;SDS011;9683;49.028;12.064;2022-09-09T13:27:21;65.17;;;4.20;;
19101;SDS011;9683;49.028;12.064;2022-09-09T13:29:53;31.77;;;2.20;;
19101;SDS011;9683;49.028;12.064;2022-09-09T13:32:22;47.93;;;2.93;;
19101;SDS011;9683;49.028;12.064;2022-09-09T13:34:52;51.80;;;3.40;;
19101;SDS011;9683;49.028;12.064;2022-09-09T13:37:22;39.37;;;3.37;;
19101;SDS011;9683;49.028;12.064;2022-09-09T13:39:54;53.03;;;3.77;;
19101;SDS011;9683;49.028;12.064;2022-09-09T13:42:24;54.57;;;3.60;;
19101;SDS011;9683;49.028;12.064;2022-09-09T13:44:53;54.93;;;4.10;;
19101;SDS011;9683;49.028;12.064;2022-09-09T13:47:26;61.70;;;4.40;;
19101;SDS011;9683;49.028;12.064;2022-09-09T13:49:55;38.47;;;3.53;;
19101;SDS011;9683;49.028;12.064;2022-09-09T13:52:21;31.20;;;2.60;;
19101;SDS011;9683;49.028;12.064;2022-09-09T13:54:48;46.57;;;3.20;;
19101;SDS011;9683;49.028;12.064;2022-09-09T13:57:18;69.27;;;5.60;;
19101;SDS011;9683;49.028;12.064;2022-09-09T13:59:46;68.80;;;5.93;;
19101;SDS011;9683;49.028;12.064;2022-09-09T14:02:13;57.70;;;4.37;;
19101;SDS011;9683;49.028;12.064;2022-09-09T14:04:41;38.13;;;4.70;;
19101;SDS011;9683;49.028;12.064;2022-09-09T14:07:08;38.80;;;2.87;;
19101;SDS011;9683;49.028;12.064;2022-09-09T14:09:38;65.17;;;5.00;;
19101;SDS011;9683;49.028;12.064;2022-09-09T14:12:05;67.97;;;4.50;;
19101;SDS011;9683;49.028;12.064;2022-09-09T14:14:35;66.73;;;4.30;;
19101;SDS011;9683;49.028;12.064;2022-09-09T14:17:02;40.33;;;2.87;;
19101;SDS011;9683;49.028;12.064;2022-09-09T14:19:29;133.40;;;7.90;;
19101;SDS011;9683;49.028;12.064;2022-09-09T14:21:56;66.60;;;4.27;;
19101;SDS011;9683;49.028;12.064;2022-09-09T14:24:22;85.50;;;5.20;;
19101;SDS011;9683;49.028;12.064;2022-09-09T14:26:50;62.20;;;4.13;;
19101;SDS011;9683;49.028;12.064;2022-09-09T14:29:16;83.03;;;5.37;;
19101;SDS011;9683;49.028;12.064;2022-09-09T14:31:44;60.50;;;3.87;;
19101;SDS011;9683;49.028;12.064;2022-09-09T14:34:11;83.33;;;5.33;;
19101;SDS011;9683;49.028;12.064;2022-09-09T14:36:39;48.73;;;3.27;;
19101;SDS011;9683;49.028;12.064;2022-09-09T14:39:06;70.90;;;4.33;;
19101;SDS011;9683;49.028;12.064;2022-09-09T14:41:33;36.07;;;2.60;;
19101;SDS011;9683;49.028;12.064;2022-09-09T14:44:00;59.77;;;4.03;;
19101;SDS011;9683;49.028;12.064;2022-09-09T14:46:26;38.63;;;2.53;;
19101;SDS011;9683;49.028;12.064;2022-09-09T14:48:55;32.20;;;2.40;;
19101;SDS011;9683;49.028;12.064;2022-09-09T14:51:22;47.27;;;3.10;;
19101;SDS011;9683;49.028;12.064;2022-09-09T14:53:50;35.07;;;3.03;;
19101;SDS011;9683;49.028;12.064;2022-09-09T14:56:19;27.97;;;3.33;;
19101;SDS011;9683;49.028;12.064;2022-09-09T14:58:48;38.33;;;2.90;;
19101;SDS011;9683;49.028;12.064;2022-09-09T15:01:17;41.30;;;3.50;;